createdAt,value
2023-05-13T00:00:40.530Z,500.00
2023-05-13T00:01:40.589Z,441.00
2023-05-13T00:02:40.614Z,412.00
2023-05-13T00:03:40.759Z,401.00
2023-05-13T00:04:40.586Z,403.00
2023-05-13T00:05:40.640Z,423.00
2023-05-13T00:06:40.941Z,444.00
2023-05-13T00:07:40.616Z,472.00
2023-05-13T00:08:40.636Z,498.00
2023-05-13T00:09:40.703Z,500.00
2023-05-13T00:10:40.666Z,501.00
2023-05-13T00:11:40.714Z,500.00
2023-05-13T00:12:40.706Z,500.00
2023-05-13T00:13:40.711Z,504.00
2023-05-13T00:14:40.745Z,502.00
2023-05-13T00:15:40.759Z,500.00
2023-05-13T00:16:40.879Z,504.00
2023-05-13T00:17:40.819Z,500.00
2023-05-13T00:18:40.828Z,502.00
2023-05-13T00:19:40.835Z,502.00
2023-05-13T00:20:40.855Z,501.00
2023-05-13T00:21:40.878Z,506.00
2023-05-13T00:22:40.941Z,506.00
2023-05-13T00:23:40.919Z,500.00
2023-05-13T00:24:40.952Z,500.00
2023-05-13T00:25:40.955Z,502.00
2023-05-13T00:26:40.972Z,503.00
2023-05-13T00:27:41.040Z,502.00
2023-05-13T00:28:41.029Z,504.00
2023-05-13T00:29:41.065Z,502.00
2023-05-13T00:30:41.060Z,502.00
2023-05-13T00:31:41.110Z,500.00
2023-05-13T00:32:41.174Z,507.00
2023-05-13T00:33:41.134Z,502.00
2023-05-13T00:34:41.152Z,504.00
2023-05-13T00:35:41.179Z,503.00
2023-05-13T00:36:41.209Z,505.00
2023-05-13T00:37:41.548Z,503.00
2023-05-13T00:38:41.249Z,500.00
2023-05-13T00:39:41.273Z,503.00
2023-05-13T00:40:41.552Z,501.00
2023-05-13T00:41:41.323Z,506.00
2023-05-13T00:42:41.353Z,509.00
2023-05-13T00:43:41.389Z,505.00
2023-05-13T00:44:41.381Z,501.00
2023-05-13T00:45:41.636Z,504.00
2023-05-13T00:46:41.437Z,505.00
2023-05-13T00:47:41.531Z,506.00
2023-05-13T00:48:41.467Z,504.00
2023-05-13T00:49:41.481Z,500.00
2023-05-13T00:50:41.498Z,505.00
2023-05-13T00:51:41.649Z,501.00
2023-05-13T00:52:41.535Z,502.00
2023-05-13T00:53:41.569Z,505.00
2023-05-13T00:54:41.606Z,505.00
2023-05-13T00:55:41.621Z,505.00
2023-05-13T00:56:41.640Z,500.00
2023-05-13T00:57:41.862Z,502.00
2023-05-13T00:58:41.691Z,506.00
2023-05-13T00:59:41.737Z,506.00
2023-05-13T01:00:41.744Z,504.00
2023-05-13T01:01:41.880Z,506.00
2023-05-13T01:02:41.915Z,503.00
2023-05-13T01:03:41.961Z,506.00
2023-05-13T01:04:41.831Z,503.00
2023-05-13T01:05:41.858Z,504.00
2023-05-13T01:06:41.882Z,506.00
2023-05-13T01:07:41.911Z,502.00
2023-05-13T01:08:41.938Z,505.00
2023-05-13T01:09:42.110Z,504.00
2023-05-13T01:10:42.118Z,504.00
2023-05-13T01:11:41.992Z,505.00
2023-05-13T01:12:42.094Z,508.00
2023-05-13T01:13:42.043Z,509.00
2023-05-13T01:14:42.063Z,503.00
2023-05-13T01:15:42.107Z,506.00
2023-05-13T01:16:42.302Z,502.00
2023-05-13T01:17:42.195Z,505.00
2023-05-13T01:18:42.192Z,506.00
2023-05-13T01:19:42.199Z,501.00
2023-05-13T01:20:42.219Z,507.00
2023-05-13T01:21:42.416Z,503.00
2023-05-13T01:22:42.275Z,508.00
2023-05-13T01:23:42.298Z,506.00
2023-05-13T01:24:42.370Z,507.00
2023-05-13T01:25:42.355Z,505.00
2023-05-13T01:26:42.382Z,504.00
2023-05-13T01:27:42.624Z,508.00
2023-05-13T01:28:42.427Z,510.00
2023-05-13T01:29:42.461Z,505.00
2023-05-13T01:30:42.498Z,504.00
2023-05-13T01:31:42.667Z,511.00
2023-05-13T01:32:42.634Z,507.00
2023-05-13T01:33:42.718Z,509.00
2023-05-13T01:34:42.634Z,501.00
2023-05-13T01:35:42.657Z,509.00
2023-05-13T01:36:42.677Z,505.00
2023-05-13T01:37:42.712Z,504.00
2023-05-13T01:38:42.734Z,505.00
2023-05-13T01:39:42.987Z,512.00
2023-05-13T01:40:42.825Z,510.00
2023-05-13T01:41:42.833Z,507.00
2023-05-13T01:42:42.868Z,508.00
2023-05-13T01:43:42.895Z,505.00
2023-05-13T01:44:42.910Z,508.00
2023-05-13T01:45:42.986Z,511.00
2023-05-13T01:46:43.100Z,507.00
2023-05-13T01:47:43.112Z,509.00
2023-05-13T01:48:43.098Z,503.00
2023-05-13T01:49:43.053Z,514.00
2023-05-13T01:50:43.090Z,507.00
2023-05-13T01:51:43.100Z,510.00
2023-05-13T01:52:43.224Z,505.00
2023-05-13T01:53:43.174Z,508.00
2023-05-13T01:54:43.215Z,506.00
2023-05-13T01:55:43.301Z,507.00
2023-05-13T01:56:43.259Z,510.00
2023-05-13T01:57:43.369Z,508.00
2023-05-13T01:58:43.309Z,510.00
2023-05-13T01:59:43.364Z,514.00
2023-05-13T02:00:43.383Z,513.00
2023-05-13T02:01:43.468Z,511.00
2023-05-13T02:02:43.490Z,510.00
2023-05-13T02:03:43.631Z,514.00
2023-05-13T02:04:43.481Z,511.00
2023-05-13T02:05:43.529Z,515.00
2023-05-13T02:06:43.556Z,513.00
2023-05-13T02:07:43.585Z,513.00
2023-05-13T02:08:43.660Z,511.00
2023-05-13T02:09:43.723Z,512.00
2023-05-13T02:10:43.657Z,511.00
2023-05-13T02:11:43.689Z,511.00
2023-05-13T02:12:43.720Z,512.00
2023-05-13T02:13:43.738Z,512.00
2023-05-13T02:14:43.772Z,511.00
2023-05-13T02:15:43.840Z,508.00
2023-05-13T02:16:43.849Z,513.00
2023-05-13T02:17:43.893Z,510.00
2023-05-13T02:18:44.012Z,513.00
2023-05-13T02:19:43.922Z,514.00
2023-05-13T02:20:43.923Z,511.00
2023-05-13T02:21:43.950Z,515.00
2023-05-13T02:22:43.986Z,512.00
2023-05-13T02:23:44.031Z,514.00
2023-05-13T02:24:44.049Z,511.00
2023-05-13T02:25:44.082Z,515.00
2023-05-13T02:26:44.150Z,514.00
2023-05-13T02:27:44.127Z,516.00
2023-05-13T02:28:44.164Z,519.00
2023-05-13T02:29:44.181Z,517.00
2023-05-13T02:30:44.203Z,515.00
2023-05-13T02:31:44.405Z,513.00
2023-05-13T02:32:44.423Z,515.00
2023-05-13T02:33:44.297Z,519.00
2023-05-13T02:34:44.336Z,520.00
2023-05-13T02:35:44.373Z,514.00
2023-05-13T02:36:44.372Z,518.00
2023-05-13T02:37:44.577Z,515.00
2023-05-13T02:38:44.434Z,519.00
2023-05-13T02:39:44.461Z,515.00
2023-05-13T02:40:44.494Z,521.00
2023-05-13T02:41:44.549Z,520.00
2023-05-13T02:42:44.549Z,517.00
2023-05-13T02:43:44.756Z,520.00
2023-05-13T02:44:44.679Z,522.00
2023-05-13T02:45:44.675Z,524.00
2023-05-13T02:46:44.675Z,522.00
2023-05-13T02:47:44.729Z,517.00
2023-05-13T02:48:44.750Z,520.00
2023-05-13T02:49:44.938Z,523.00
2023-05-13T02:50:44.804Z,519.00
2023-05-13T02:51:44.862Z,519.00
2023-05-13T02:52:44.858Z,519.00
2023-05-13T02:53:44.893Z,522.00
2023-05-13T02:54:44.984Z,518.00
2023-05-13T02:55:45.075Z,520.00
2023-05-13T02:56:45.042Z,525.00
2023-05-13T02:57:45.016Z,522.00
2023-05-13T02:58:45.106Z,523.00
2023-05-13T02:59:45.094Z,522.00
2023-05-13T03:00:45.087Z,519.00
2023-05-13T03:01:45.189Z,526.00
2023-05-13T03:02:45.276Z,522.00
2023-05-13T03:03:45.191Z,526.00
2023-05-13T03:04:45.197Z,520.00
2023-05-13T03:05:45.235Z,522.00
2023-05-13T03:06:45.257Z,522.00
2023-05-13T03:07:45.313Z,524.00
2023-05-13T03:08:45.314Z,521.00
2023-05-13T03:09:45.342Z,526.00
2023-05-13T03:10:45.372Z,524.00
2023-05-13T03:11:45.400Z,523.00
2023-05-13T03:12:45.430Z,521.00
2023-05-13T03:13:45.470Z,522.00
2023-05-13T03:14:45.485Z,522.00
2023-05-13T03:15:45.537Z,523.00
2023-05-13T03:16:45.546Z,521.00
2023-05-13T03:17:45.587Z,522.00
2023-05-13T03:18:45.713Z,525.00
2023-05-13T03:19:45.646Z,525.00
2023-05-13T03:20:45.663Z,527.00
2023-05-13T03:21:45.697Z,524.00
2023-05-13T03:22:45.744Z,526.00
2023-05-13T03:23:45.791Z,524.00
2023-05-13T03:24:45.799Z,524.00
2023-05-13T03:25:45.849Z,525.00
2023-05-13T03:26:45.871Z,522.00
2023-05-13T03:27:45.900Z,526.00
2023-05-13T03:28:45.937Z,524.00
2023-05-13T03:29:45.973Z,526.00
2023-05-13T03:30:46.009Z,525.00
2023-05-13T03:31:46.067Z,523.00
2023-05-13T03:32:46.082Z,524.00
2023-05-13T03:33:46.088Z,525.00
2023-05-13T03:34:46.125Z,525.00
2023-05-13T03:35:46.143Z,525.00
2023-05-13T03:36:46.183Z,524.00
2023-05-13T03:37:46.218Z,523.00
2023-05-13T03:38:46.258Z,523.00
2023-05-13T03:39:46.323Z,526.00
2023-05-13T03:40:46.323Z,530.00
2023-05-13T03:41:46.355Z,525.00
2023-05-13T03:42:46.386Z,527.00
2023-05-13T03:43:46.438Z,530.00
2023-05-13T03:44:46.464Z,528.00
2023-05-13T03:45:46.492Z,527.00
2023-05-13T03:46:46.550Z,529.00
2023-05-13T03:47:46.610Z,525.00
2023-05-13T03:48:46.583Z,525.00
2023-05-13T03:49:46.625Z,529.00
2023-05-13T03:50:46.656Z,531.00
2023-05-13T03:51:46.681Z,527.00
2023-05-13T03:52:47.360Z,526.00
2023-05-13T03:53:46.748Z,530.00
2023-05-13T03:54:46.777Z,533.00
2023-05-13T03:55:46.822Z,527.00
2023-05-13T03:56:46.821Z,529.00
2023-05-13T03:57:46.851Z,532.00
2023-05-13T03:58:47.040Z,530.00
2023-05-13T03:59:46.902Z,527.00
2023-05-13T04:00:47.003Z,535.00
2023-05-13T04:01:46.989Z,528.00
2023-05-13T04:02:47.038Z,534.00
2023-05-13T04:03:47.228Z,533.00
2023-05-13T04:04:47.115Z,534.00
2023-05-13T04:05:47.079Z,529.00
2023-05-13T04:06:47.089Z,533.00
2023-05-13T04:07:47.124Z,533.00
2023-05-13T04:08:47.137Z,531.00
2023-05-13T04:09:47.169Z,533.00
2023-05-13T04:10:47.226Z,534.00
2023-05-13T04:11:47.325Z,537.00
2023-05-13T04:12:47.260Z,533.00
2023-05-13T04:13:47.277Z,533.00
2023-05-13T04:14:47.301Z,533.00
2023-05-13T04:15:47.340Z,535.00
2023-05-13T04:16:47.419Z,533.00
2023-05-13T04:17:47.454Z,537.00
2023-05-13T04:18:47.473Z,535.00
2023-05-13T04:19:47.474Z,534.00
2023-05-13T04:20:47.490Z,537.00
2023-05-13T04:21:47.509Z,541.00
2023-05-13T04:22:47.545Z,537.00
2023-05-13T04:23:47.573Z,534.00
2023-05-13T04:24:47.610Z,535.00
2023-05-13T04:25:47.631Z,533.00
2023-05-13T04:26:47.679Z,533.00
2023-05-13T04:27:47.740Z,536.00
2023-05-13T04:28:47.775Z,537.00
2023-05-13T04:29:47.820Z,539.00
2023-05-13T04:30:47.798Z,538.00
2023-05-13T04:31:47.849Z,532.00
2023-05-13T04:32:47.919Z,538.00
2023-05-13T04:33:47.890Z,534.00
2023-05-13T04:34:47.917Z,538.00
2023-05-13T04:35:47.962Z,540.00
2023-05-13T04:36:47.990Z,538.00
2023-05-13T04:37:48.017Z,540.00
2023-05-13T04:38:48.037Z,539.00
2023-05-13T04:39:48.106Z,535.00
2023-05-13T04:40:48.099Z,537.00
2023-05-13T04:41:48.146Z,542.00
2023-05-13T04:42:48.149Z,540.00
2023-05-13T04:43:48.202Z,542.00
2023-05-13T04:44:48.281Z,542.00
2023-05-13T04:45:48.251Z,539.00
2023-05-13T04:46:48.386Z,536.00
2023-05-13T04:47:48.360Z,538.00
2023-05-13T04:48:48.370Z,535.00
2023-05-13T04:49:48.553Z,537.00
2023-05-13T04:50:48.437Z,541.00
2023-05-13T04:51:48.422Z,541.00
2023-05-13T04:52:48.438Z,538.00
2023-05-13T04:53:48.465Z,539.00
2023-05-13T04:54:48.520Z,541.00
2023-05-13T04:55:48.584Z,538.00
2023-05-13T04:56:48.554Z,541.00
2023-05-13T04:57:48.775Z,543.00
2023-05-13T04:58:48.615Z,545.00
2023-05-13T04:59:48.665Z,537.00
2023-05-13T05:00:48.709Z,541.00
2023-05-13T05:01:48.750Z,542.00
2023-05-13T05:02:48.771Z,540.00
2023-05-13T05:03:48.815Z,540.00
2023-05-13T05:04:48.797Z,542.00
2023-05-13T05:05:48.824Z,541.00
2023-05-13T05:06:48.982Z,543.00
2023-05-13T05:07:48.872Z,543.00
2023-05-13T05:08:48.957Z,543.00
2023-05-13T05:09:48.943Z,542.00
2023-05-13T05:10:48.961Z,542.00
2023-05-13T05:11:48.987Z,545.00
2023-05-13T05:12:49.178Z,539.00
2023-05-13T05:13:49.056Z,546.00
2023-05-13T05:14:49.080Z,544.00
2023-05-13T05:15:49.128Z,541.00
2023-05-13T05:16:49.227Z,541.00
2023-05-13T05:17:49.446Z,543.00
2023-05-13T05:18:49.240Z,546.00
2023-05-13T05:19:49.208Z,543.00
2023-05-13T05:20:49.229Z,541.00
2023-05-13T05:21:49.251Z,542.00
2023-05-13T05:22:49.274Z,542.00
2023-05-13T05:23:49.438Z,545.00
2023-05-13T05:24:49.327Z,543.00
2023-05-13T05:25:53.223Z,542.00
2023-05-13T05:26:49.347Z,543.00
2023-05-13T05:27:49.334Z,545.00
2023-05-13T05:28:49.334Z,546.00
2023-05-13T05:29:49.318Z,548.00
2023-05-13T05:30:49.394Z,550.00
2023-05-13T05:31:49.366Z,547.00
2023-05-13T05:32:49.317Z,548.00
2023-05-13T05:33:49.280Z,544.00
2023-05-13T05:34:49.277Z,547.00
2023-05-13T05:35:49.256Z,543.00
2023-05-13T05:36:49.398Z,549.00
2023-05-13T05:37:49.243Z,545.00
2023-05-13T05:38:49.242Z,543.00
2023-05-13T05:39:49.224Z,545.00
2023-05-13T05:40:49.210Z,544.00
2023-05-13T05:41:49.196Z,545.00
2023-05-13T05:42:49.342Z,546.00
2023-05-13T05:43:49.176Z,542.00
2023-05-13T05:44:49.163Z,543.00
2023-05-13T05:45:49.248Z,543.00
2023-05-13T05:46:49.131Z,545.00
2023-05-13T05:47:49.289Z,543.00
2023-05-13T05:48:49.111Z,546.00
2023-05-13T05:49:49.120Z,544.00
2023-05-13T05:50:49.081Z,547.00
2023-05-13T05:51:49.088Z,541.00
2023-05-13T05:52:49.073Z,549.00
2023-05-13T05:53:49.231Z,544.00
2023-05-13T05:54:49.172Z,547.00
2023-05-13T05:55:51.086Z,547.00
2023-05-13T05:56:49.069Z,547.00
2023-05-13T05:57:49.051Z,548.00
2023-05-13T05:58:49.048Z,548.00
2023-05-13T05:59:49.045Z,546.00
2023-05-13T06:00:49.064Z,556.00
2023-05-13T06:01:48.986Z,553.00
2023-05-13T06:02:49.094Z,549.00
2023-05-13T06:03:50.468Z,550.00
2023-05-13T06:04:49.112Z,550.00
2023-05-13T06:05:48.980Z,552.00
2023-05-13T06:06:48.991Z,552.00
2023-05-13T06:07:48.911Z,554.00
2023-05-13T06:08:48.918Z,555.00
2023-05-13T06:09:48.893Z,555.00
2023-05-13T06:10:48.887Z,553.00
2023-05-13T06:11:48.887Z,551.00
2023-05-13T06:12:48.863Z,551.00
2023-05-13T06:13:48.851Z,548.00
2023-05-13T06:14:48.850Z,550.00
2023-05-13T06:15:48.901Z,553.00
2023-05-13T06:16:48.838Z,552.00
2023-05-13T06:17:48.951Z,550.00
2023-05-13T06:18:48.959Z,552.00
2023-05-13T06:19:48.822Z,551.00
2023-05-13T06:20:48.780Z,556.00
2023-05-13T06:21:48.770Z,555.00
2023-05-13T06:22:48.768Z,559.00
2023-05-13T06:23:48.746Z,561.00
2023-05-13T06:24:48.726Z,562.00
2023-05-13T06:25:48.727Z,566.00
2023-05-13T06:26:48.713Z,564.00
2023-05-13T06:27:48.739Z,570.00
2023-05-13T06:28:48.710Z,569.00
2023-05-13T06:29:48.712Z,575.00
2023-05-13T06:30:48.782Z,588.00
2023-05-13T06:31:48.762Z,586.00
2023-05-13T06:33:00.170Z,584.00
2023-05-13T06:33:48.657Z,586.00
2023-05-13T06:34:48.640Z,591.00
2023-05-13T06:35:48.684Z,597.00
2023-05-13T06:36:48.623Z,610.00
2023-05-13T06:37:48.625Z,627.00
2023-05-13T06:38:48.606Z,626.00
2023-05-13T06:39:48.595Z,627.00
2023-05-13T06:40:48.568Z,630.00
2023-05-13T06:41:48.593Z,630.00
2023-05-13T06:42:48.646Z,631.00
2023-05-13T06:43:48.530Z,633.00
2023-05-13T06:44:48.526Z,637.00
2023-05-13T06:45:48.518Z,634.00
2023-05-13T06:46:48.510Z,634.00
2023-05-13T06:47:48.532Z,640.00
2023-05-13T06:48:48.662Z,635.00
2023-05-13T06:49:48.482Z,639.00
2023-05-13T06:50:48.476Z,642.00
2023-05-13T06:51:48.490Z,643.00
2023-05-13T06:52:48.470Z,643.00
2023-05-13T06:53:48.459Z,648.00
2023-05-13T06:54:48.531Z,653.00
2023-05-13T06:55:48.446Z,656.00
2023-05-13T06:56:48.442Z,655.00
2023-05-13T06:57:48.430Z,657.00
2023-05-13T06:58:48.417Z,664.00
2023-05-13T06:59:48.411Z,663.00
2023-05-13T07:00:48.587Z,663.00
2023-05-13T07:01:48.384Z,672.00
2023-05-13T07:02:48.455Z,674.00
2023-05-13T07:03:48.406Z,681.00
2023-05-13T07:04:48.352Z,680.00
2023-05-13T07:05:48.337Z,677.00
2023-05-13T07:06:48.509Z,691.00
2023-05-13T07:07:48.346Z,703.00
2023-05-13T07:08:48.300Z,699.00
2023-05-13T07:09:48.297Z,705.00
2023-05-13T07:10:48.287Z,709.00
2023-05-13T07:11:48.272Z,715.00
2023-05-13T07:12:48.359Z,712.00
2023-05-13T07:13:49.209Z,721.00
2023-05-13T07:14:48.246Z,713.00
2023-05-13T07:15:48.239Z,729.00
2023-05-13T07:16:48.275Z,716.00
2023-05-13T07:17:48.634Z,736.00
2023-05-13T07:18:48.424Z,730.00
2023-05-13T07:19:48.205Z,744.00
2023-05-13T07:20:48.188Z,744.00
2023-05-13T07:21:48.255Z,754.00
2023-05-13T07:22:48.315Z,740.00
2023-05-13T07:23:48.403Z,734.00
2023-05-13T07:24:48.564Z,743.00
2023-05-13T07:25:48.498Z,767.00
2023-05-13T07:26:48.560Z,761.00
2023-05-13T07:27:48.635Z,758.00
2023-05-13T07:28:48.676Z,765.00
2023-05-13T07:29:48.737Z,776.00
2023-05-13T07:30:48.986Z,769.00
2023-05-13T07:31:48.867Z,769.00
2023-05-13T07:32:48.923Z,785.00
2023-05-13T07:33:48.970Z,779.00
2023-05-13T07:34:49.021Z,773.00
2023-05-13T07:35:49.061Z,793.00
2023-05-13T07:36:49.188Z,787.00
2023-05-13T07:37:49.341Z,796.00
2023-05-13T07:38:49.228Z,786.00
2023-05-13T07:39:49.458Z,807.00
2023-05-13T07:40:49.317Z,795.00
2023-05-13T07:41:49.367Z,798.00
2023-05-13T07:42:49.568Z,798.00
2023-05-13T07:43:49.490Z,794.00
2023-05-13T07:44:49.542Z,812.00
2023-05-13T07:45:49.577Z,812.00
2023-05-13T07:46:49.686Z,800.00
2023-05-13T07:47:49.717Z,791.00
2023-05-13T07:48:49.724Z,798.00
2023-05-13T07:49:50.029Z,806.00
2023-05-13T07:50:49.847Z,811.00
2023-05-13T07:51:49.871Z,809.00
2023-05-13T07:52:50.047Z,802.00
2023-05-13T07:53:49.973Z,792.00
2023-05-13T07:54:49.992Z,779.00
2023-05-13T07:55:50.071Z,759.00
2023-05-13T07:56:50.105Z,747.00
2023-05-13T07:57:50.269Z,729.00
2023-05-13T07:58:50.195Z,736.00
2023-05-13T07:59:50.233Z,725.00
2023-05-13T08:00:50.292Z,721.00
2023-05-13T08:01:50.345Z,716.00
2023-05-13T08:02:50.501Z,695.00
2023-05-13T08:03:50.640Z,710.00
2023-05-13T08:04:50.533Z,704.00
2023-05-13T08:05:50.551Z,715.00
2023-05-13T08:06:50.600Z,705.00
2023-05-13T08:07:50.656Z,714.00
2023-05-13T08:08:51.225Z,719.00
2023-05-13T08:09:50.744Z,723.00
2023-05-13T08:10:50.806Z,721.00
2023-05-13T08:11:50.934Z,724.00
2023-05-13T08:12:50.928Z,732.00
2023-05-13T08:13:50.951Z,749.00
2023-05-13T08:14:51.014Z,736.00
2023-05-13T08:15:51.161Z,734.00
2023-05-13T08:16:51.231Z,738.00
2023-05-13T08:17:51.245Z,731.00
2023-05-13T08:18:51.310Z,750.00
2023-05-13T08:19:51.291Z,753.00
2023-05-13T08:20:51.348Z,744.00
2023-05-13T08:21:51.325Z,759.00
2023-05-13T08:22:51.366Z,751.00
2023-05-13T08:23:51.421Z,753.00
2023-05-13T08:24:51.447Z,767.00
2023-05-13T08:25:51.483Z,761.00
2023-05-13T08:26:51.532Z,762.00
2023-05-13T08:27:51.594Z,757.00
2023-05-13T08:28:54.474Z,773.00
2023-05-13T08:29:51.744Z,774.00
2023-05-13T08:30:51.592Z,776.00
2023-05-13T08:31:51.645Z,776.00
2023-05-13T08:32:51.660Z,775.00
2023-05-13T08:33:51.570Z,790.00
2023-05-13T08:34:51.566Z,795.00
2023-05-13T08:35:51.545Z,789.00
2023-05-13T08:36:51.567Z,800.00
2023-05-13T08:37:51.543Z,805.00
2023-05-13T08:38:51.500Z,796.00
2023-05-13T08:39:51.503Z,805.00
2023-05-13T08:40:51.488Z,796.00
2023-05-13T08:41:51.455Z,810.00
2023-05-13T08:42:51.439Z,806.00
2023-05-13T08:43:51.464Z,815.00
2023-05-13T08:44:51.418Z,815.00
2023-05-13T08:45:51.402Z,813.00
2023-05-13T08:46:51.378Z,814.00
2023-05-13T08:47:51.476Z,817.00
2023-05-13T08:48:51.424Z,823.00
2023-05-13T08:49:51.440Z,829.00
2023-05-13T08:50:51.524Z,823.00
2023-05-13T08:51:51.472Z,833.00
2023-05-13T08:52:51.486Z,827.00
2023-05-13T08:53:51.514Z,834.00
2023-05-13T08:54:51.550Z,833.00
2023-05-13T08:55:51.590Z,839.00
2023-05-13T08:56:51.619Z,841.00
2023-05-13T08:57:51.649Z,844.00
2023-05-13T08:58:51.734Z,840.00
2023-05-13T08:59:51.753Z,842.00
2023-05-13T09:00:51.904Z,847.00
2023-05-13T09:01:51.818Z,852.00
2023-05-13T09:02:51.837Z,847.00
2023-05-13T09:03:51.863Z,850.00
2023-05-13T09:04:51.899Z,859.00
2023-05-13T09:05:51.899Z,862.00
2023-05-13T09:06:51.929Z,864.00
2023-05-13T09:07:51.960Z,864.00
2023-05-13T09:08:51.995Z,871.00
2023-05-13T09:09:52.018Z,875.00
2023-05-13T09:10:52.052Z,875.00
2023-05-13T09:11:52.077Z,867.00
2023-05-13T09:12:52.109Z,870.00
2023-05-13T09:13:52.154Z,878.00
2023-05-13T09:14:52.181Z,874.00
2023-05-13T09:15:52.284Z,884.00
2023-05-13T09:16:52.262Z,876.00
2023-05-13T09:17:52.441Z,889.00
2023-05-13T09:18:52.370Z,880.00
2023-05-13T09:19:52.405Z,889.00
2023-05-13T09:20:52.368Z,896.00
2023-05-13T09:21:52.399Z,895.00
2023-05-13T09:22:52.422Z,896.00
2023-05-13T09:23:52.459Z,887.00
2023-05-13T09:24:52.488Z,896.00
2023-05-13T09:25:52.512Z,889.00
2023-05-13T09:26:52.536Z,874.00
2023-05-13T09:27:52.564Z,891.00
2023-05-13T09:28:52.596Z,899.00
2023-05-13T09:29:52.633Z,898.00
2023-05-13T09:30:52.703Z,899.00
2023-05-13T09:31:52.715Z,864.00
2023-05-13T09:32:52.757Z,865.00
2023-05-13T09:33:52.772Z,885.00
2023-05-13T09:34:52.795Z,871.00
2023-05-13T09:35:53.419Z,884.00
2023-05-13T09:36:52.915Z,905.00
2023-05-13T09:37:52.921Z,912.00
2023-05-13T09:38:52.939Z,897.00
2023-05-13T09:39:53.004Z,877.00
2023-05-13T09:40:53.044Z,847.00
2023-05-13T09:41:53.078Z,852.00
2023-05-13T09:42:53.129Z,845.00
2023-05-13T09:43:53.119Z,818.00
2023-05-13T09:44:53.184Z,814.00
2023-05-13T09:45:53.209Z,797.00
2023-05-13T09:46:53.289Z,769.00
2023-05-13T09:47:53.381Z,762.00
2023-05-13T09:48:55.159Z,774.00
2023-05-13T09:49:53.337Z,775.00
2023-05-13T09:50:53.453Z,774.00
2023-05-13T09:51:53.298Z,770.00
2023-05-13T09:52:53.287Z,774.00
2023-05-13T09:53:53.279Z,766.00
2023-05-13T09:54:53.264Z,754.00
2023-05-13T09:55:53.257Z,740.00
2023-05-13T09:56:53.245Z,748.00
2023-05-13T09:57:53.235Z,739.00
2023-05-13T09:58:53.305Z,746.00
2023-05-13T09:59:53.257Z,737.00
2023-05-13T10:00:53.281Z,738.00
2023-05-13T10:01:53.256Z,734.00
2023-05-13T10:02:53.318Z,725.00
2023-05-13T10:03:53.215Z,737.00
2023-05-13T10:04:53.154Z,731.00
2023-05-13T10:05:53.165Z,732.00
2023-05-13T10:06:53.174Z,725.00
2023-05-13T10:07:53.231Z,715.00
2023-05-13T10:08:53.281Z,736.00
2023-05-13T10:09:53.325Z,734.00
2023-05-13T10:10:53.366Z,732.00
2023-05-13T10:11:53.410Z,719.00
2023-05-13T10:12:53.459Z,731.00
2023-05-13T10:13:53.514Z,721.00
2023-05-13T10:14:53.585Z,727.00
2023-05-13T10:15:53.632Z,723.00
2023-05-13T10:16:53.715Z,727.00
2023-05-13T10:17:53.731Z,737.00
2023-05-13T10:18:53.885Z,715.00
2023-05-13T10:19:53.819Z,704.00
2023-05-13T10:20:54.278Z,710.00
2023-05-13T10:21:53.886Z,715.00
2023-05-13T10:22:53.939Z,715.00
2023-05-13T10:23:53.977Z,699.00
2023-05-13T10:24:54.022Z,697.00
2023-05-13T10:25:54.070Z,704.00
2023-05-13T10:26:54.116Z,702.00
2023-05-13T10:27:54.175Z,701.00
2023-05-13T10:28:54.217Z,697.00
2023-05-13T10:29:54.270Z,700.00
2023-05-13T10:30:54.426Z,708.00
2023-05-13T10:31:54.403Z,686.00
2023-05-13T10:32:54.440Z,684.00
2023-05-13T10:33:54.428Z,694.00
2023-05-13T10:34:54.478Z,691.00
2023-05-13T10:35:54.556Z,689.00
2023-05-13T10:36:54.576Z,697.00
2023-05-13T10:37:54.616Z,691.00
2023-05-13T10:38:54.679Z,700.00
2023-05-13T10:39:54.719Z,684.00
2023-05-13T10:40:54.757Z,692.00
2023-05-13T10:41:54.798Z,682.00
2023-05-13T10:42:54.876Z,680.00
2023-05-13T10:43:54.896Z,686.00
2023-05-13T10:44:54.945Z,677.00
2023-05-13T10:45:55.014Z,695.00
2023-05-13T10:46:55.047Z,674.00
2023-05-13T10:47:55.186Z,674.00
2023-05-13T10:48:55.150Z,683.00
2023-05-13T10:49:55.199Z,695.00
2023-05-13T10:50:55.248Z,676.00
2023-05-13T10:51:55.485Z,677.00
2023-05-13T10:52:55.346Z,677.00
2023-05-13T10:53:55.401Z,679.00
2023-05-13T10:54:55.448Z,666.00
2023-05-13T10:55:55.503Z,669.00
2023-05-13T10:56:55.549Z,666.00
2023-05-13T10:57:55.607Z,671.00
2023-05-13T10:58:55.654Z,665.00
2023-05-13T10:59:55.702Z,661.00
2023-05-13T11:00:55.751Z,664.00
2023-05-13T11:01:55.841Z,666.00
2023-05-13T11:02:55.920Z,659.00
2023-05-13T11:03:55.953Z,661.00
2023-05-13T11:04:55.932Z,664.00
2023-05-13T11:05:55.987Z,662.00
2023-05-13T11:06:56.032Z,664.00
2023-05-13T11:07:56.118Z,665.00
2023-05-13T11:08:56.493Z,663.00
2023-05-13T11:09:56.187Z,663.00
2023-05-13T11:10:56.233Z,659.00
2023-05-13T11:11:56.279Z,659.00
2023-05-13T11:12:56.355Z,657.00
2023-05-13T11:13:56.393Z,664.00
2023-05-13T11:14:56.491Z,660.00
2023-05-13T11:15:56.513Z,661.00
2023-05-13T11:16:56.551Z,661.00
2023-05-13T11:17:56.613Z,659.00
2023-05-13T11:18:56.667Z,658.00
2023-05-13T11:19:56.706Z,659.00
2023-05-13T11:20:56.771Z,660.00
2023-05-13T11:21:56.796Z,657.00
2023-05-13T11:22:56.863Z,660.00
2023-05-13T11:23:56.942Z,654.00
2023-05-13T11:24:56.961Z,657.00
2023-05-13T11:25:57.031Z,655.00
2023-05-13T11:26:57.093Z,653.00
2023-05-13T11:27:57.128Z,650.00
2023-05-13T11:28:57.178Z,657.00
2023-05-13T11:29:57.236Z,655.00
2023-05-13T11:30:57.311Z,651.00
2023-05-13T11:31:59.862Z,651.00
2023-05-13T11:32:57.484Z,651.00
2023-05-13T11:33:57.320Z,651.00
2023-05-13T11:34:57.294Z,651.00
2023-05-13T11:35:57.281Z,652.00
2023-05-13T11:36:57.268Z,648.00
2023-05-13T11:37:59.815Z,649.00
2023-05-13T11:38:57.241Z,650.00
2023-05-13T11:39:57.241Z,650.00
2023-05-13T11:40:57.204Z,650.00
2023-05-13T11:41:57.212Z,646.00
2023-05-13T11:42:57.168Z,645.00
2023-05-13T11:43:57.148Z,646.00
2023-05-13T11:44:57.139Z,652.00
2023-05-13T11:45:57.188Z,649.00
2023-05-13T11:46:57.098Z,641.00
2023-05-13T11:47:57.115Z,643.00
2023-05-13T11:48:57.052Z,646.00
2023-05-13T11:49:57.035Z,645.00
2023-05-13T11:50:57.019Z,642.00
2023-05-13T11:51:56.999Z,641.00
2023-05-13T11:52:56.982Z,636.00
2023-05-13T11:53:56.972Z,636.00
2023-05-13T11:54:56.954Z,632.00
2023-05-13T11:55:56.966Z,638.00
2023-05-13T11:56:56.931Z,636.00
2023-05-13T11:57:56.928Z,635.00
2023-05-13T11:58:56.895Z,633.00
2023-05-13T11:59:56.880Z,635.00
2023-05-13T12:00:56.875Z,636.00
2023-05-13T12:01:56.917Z,633.00
2023-05-13T12:02:57.075Z,631.00
2023-05-13T12:03:56.984Z,634.00
2023-05-13T12:04:57.029Z,629.00
2023-05-13T12:05:57.028Z,629.00
2023-05-13T12:06:57.064Z,629.00
2023-05-13T12:07:57.113Z,631.00
2023-05-13T12:08:57.160Z,636.00
2023-05-13T12:09:57.190Z,631.00
2023-05-13T12:10:57.237Z,629.00
2023-05-13T12:11:57.304Z,627.00
2023-05-13T12:12:57.340Z,629.00
2023-05-13T12:13:57.377Z,628.00
2023-05-13T12:14:57.426Z,629.00
2023-05-13T12:15:57.518Z,628.00
2023-05-13T12:16:57.531Z,625.00
2023-05-13T12:17:57.636Z,627.00
2023-05-13T12:18:57.641Z,627.00
2023-05-13T12:19:57.664Z,626.00
2023-05-13T12:20:57.722Z,629.00
2023-05-13T12:21:57.759Z,624.00
2023-05-13T12:22:57.816Z,626.00
2023-05-13T12:23:57.849Z,624.00
2023-05-13T12:24:57.907Z,623.00
2023-05-13T12:25:57.967Z,622.00
2023-05-13T12:26:58.014Z,625.00
2023-05-13T12:27:58.088Z,620.00
2023-05-13T12:28:58.092Z,614.00